createdAt,value
2023-05-07T00:01:28.956Z,2.90
2023-05-07T00:03:57.284Z,3.60
2023-05-07T00:06:27.152Z,3.00
2023-05-07T00:08:55.216Z,3.80
2023-05-07T00:11:23.405Z,3.40
2023-05-07T00:13:51.486Z,3.20
2023-05-07T00:16:19.588Z,3.30
2023-05-07T00:18:47.686Z,3.30
2023-05-07T00:21:15.928Z,3.80
2023-05-07T00:23:44.094Z,3.70
2023-05-07T00:26:12.194Z,3.30
2023-05-07T00:28:40.555Z,2.70
2023-05-07T00:31:08.764Z,3.30
2023-05-07T00:33:36.882Z,2.90
2023-05-07T00:36:05.258Z,2.90
2023-05-07T00:38:33.349Z,3.00
2023-05-07T00:41:01.661Z,2.90
2023-05-07T00:43:29.939Z,2.90
2023-05-07T00:45:58.068Z,3.20
2023-05-07T00:48:26.911Z,3.10
2023-05-07T00:50:55.529Z,2.80
2023-05-07T00:53:23.807Z,2.90
2023-05-07T00:55:52.261Z,2.90
2023-05-07T00:58:21.132Z,2.60
2023-05-07T01:00:49.361Z,3.40
2023-05-07T01:03:17.510Z,2.90
2023-05-07T01:05:47.894Z,3.00
2023-05-07T01:08:16.986Z,2.70
2023-05-07T01:10:45.928Z,3.30
2023-05-07T01:13:14.853Z,3.10
2023-05-07T01:15:44.294Z,3.40
2023-05-07T01:18:12.599Z,3.50
2023-05-07T01:20:40.972Z,3.40
2023-05-07T01:23:10.063Z,4.10
2023-05-07T01:25:38.177Z,3.80
2023-05-07T01:28:06.955Z,4.00
2023-05-07T01:30:37.072Z,4.00
2023-05-07T01:33:12.168Z,4.00
2023-05-07T01:35:43.218Z,3.40
2023-05-07T01:38:11.565Z,3.60
2023-05-07T01:40:39.904Z,3.50
2023-05-07T01:43:08.318Z,3.10
2023-05-07T01:45:36.631Z,3.70
2023-05-07T01:48:05.516Z,3.30
2023-05-07T01:50:33.870Z,3.40
2023-05-07T01:53:02.696Z,3.60
2023-05-07T01:55:30.730Z,3.20
2023-05-07T01:57:58.899Z,2.80
2023-05-07T02:00:27.159Z,3.30
2023-05-07T02:02:55.485Z,3.00
2023-05-07T02:05:24.192Z,3.00
2023-05-07T02:07:52.433Z,3.40
2023-05-07T02:10:20.582Z,2.90
2023-05-07T02:12:48.695Z,3.00
2023-05-07T02:15:16.728Z,3.60
2023-05-07T02:18:02.509Z,3.20
2023-05-07T02:20:30.684Z,3.20
2023-05-07T02:22:58.807Z,3.50
2023-05-07T02:25:27.190Z,3.40
2023-05-07T02:27:55.331Z,2.90
2023-05-07T02:30:23.432Z,3.30
2023-05-07T02:32:51.503Z,3.10
2023-05-07T02:35:19.852Z,2.60
2023-05-07T02:37:47.946Z,3.00
2023-05-07T02:40:16.289Z,3.50
2023-05-07T02:42:44.433Z,2.90
2023-05-07T02:45:12.594Z,2.80
2023-05-07T02:47:40.700Z,3.10
2023-05-07T02:50:09.322Z,3.20
2023-05-07T02:52:37.651Z,3.40
2023-05-07T02:55:06.249Z,3.30
2023-05-07T02:57:34.356Z,2.60
2023-05-07T03:00:14.925Z,3.10
2023-05-07T03:02:43.301Z,3.10
2023-05-07T03:05:11.974Z,2.90
2023-05-07T03:07:40.110Z,3.00
2023-05-07T03:10:08.830Z,3.00
2023-05-07T03:12:37.071Z,3.00
2023-05-07T03:15:05.420Z,3.50
2023-05-07T03:17:33.579Z,3.00
2023-05-07T03:20:01.749Z,3.10
2023-05-07T03:22:29.911Z,3.70
2023-05-07T03:24:58.405Z,3.30
2023-05-07T03:27:26.511Z,3.00
2023-05-07T03:29:54.492Z,2.90
2023-05-07T03:32:22.811Z,3.00
2023-05-07T03:34:50.949Z,3.30
2023-05-07T03:37:19.692Z,3.20
2023-05-07T03:39:47.774Z,2.70
2023-05-07T03:42:16.148Z,2.50
2023-05-07T03:44:44.165Z,3.20
2023-05-07T03:47:12.308Z,2.90
2023-05-07T03:49:41.067Z,3.10
2023-05-07T03:52:09.165Z,2.60
2023-05-07T03:54:37.687Z,2.80
2023-05-07T03:57:05.766Z,2.80
2023-05-07T03:59:33.972Z,2.80
2023-05-07T04:02:05.065Z,3.40
2023-05-07T04:04:34.124Z,2.90
2023-05-07T04:07:02.290Z,3.30
2023-05-07T04:09:30.381Z,3.40
2023-05-07T04:11:58.478Z,3.20
2023-05-07T04:14:26.623Z,3.40
2023-05-07T04:16:54.699Z,3.20
2023-05-07T04:19:22.758Z,3.50
2023-05-07T04:21:50.920Z,3.40
2023-05-07T04:24:19.190Z,3.30
2023-05-07T04:26:47.326Z,2.90
2023-05-07T04:29:15.520Z,2.90
2023-05-07T04:31:45.537Z,3.00
2023-05-07T04:34:14.104Z,3.10
2023-05-07T04:36:43.626Z,3.10
2023-05-07T04:39:12.015Z,3.10
2023-05-07T04:41:40.175Z,3.40
2023-05-07T04:44:08.268Z,3.10
2023-05-07T04:46:36.431Z,2.80
2023-05-07T04:49:04.684Z,3.30
2023-05-07T04:51:33.824Z,2.90
2023-05-07T04:54:01.860Z,3.50
2023-05-07T04:56:31.086Z,3.20
2023-05-07T04:58:59.311Z,3.40
2023-05-07T05:01:27.448Z,3.00
2023-05-07T05:03:55.733Z,3.10
2023-05-07T05:06:23.940Z,3.00
2023-05-07T05:08:52.042Z,3.10
2023-05-07T05:11:20.364Z,3.40
2023-05-07T05:13:51.454Z,3.30
2023-05-07T05:16:19.649Z,3.20
2023-05-07T05:18:47.769Z,3.50
2023-05-07T05:21:15.930Z,3.30
2023-05-07T05:23:44.119Z,3.30
2023-05-07T05:26:12.235Z,3.50
2023-05-07T05:28:40.391Z,3.20
2023-05-07T05:31:08.545Z,3.20
2023-05-07T05:33:36.752Z,3.40
2023-05-07T05:36:05.494Z,3.30
2023-05-07T05:38:33.623Z,3.90
2023-05-07T05:41:01.685Z,3.80
2023-05-07T05:43:29.722Z,4.00
2023-05-07T05:45:58.782Z,4.20
2023-05-07T05:48:26.892Z,3.60
2023-05-07T05:50:55.033Z,3.50
2023-05-07T05:53:23.214Z,3.50
2023-05-07T05:55:52.594Z,3.40
2023-05-07T05:58:20.797Z,3.50
2023-05-07T06:00:49.587Z,3.50
2023-05-07T06:03:17.751Z,3.50
2023-05-07T06:05:45.998Z,3.40
2023-05-07T06:08:14.747Z,3.30
2023-05-07T06:10:42.948Z,3.70
2023-05-07T06:13:11.127Z,3.50
2023-05-07T06:15:39.295Z,3.70
2023-05-07T06:18:07.544Z,3.30
2023-05-07T06:20:35.638Z,3.20
2023-05-07T06:23:03.751Z,3.10
2023-05-07T06:25:31.818Z,3.60
2023-05-07T06:28:00.007Z,3.10
2023-05-07T06:30:28.113Z,3.60
2023-05-07T06:32:56.215Z,3.60
2023-05-07T06:35:24.320Z,3.80
2023-05-07T06:37:52.430Z,3.50
2023-05-07T06:40:20.477Z,2.70
2023-05-07T06:42:48.567Z,3.30
2023-05-07T06:45:16.714Z,3.10
2023-05-07T06:47:44.785Z,3.30
2023-05-07T06:50:13.073Z,4.00
2023-05-07T06:52:41.150Z,3.20
2023-05-07T06:55:10.089Z,3.30
2023-05-07T06:57:38.779Z,3.70
2023-05-07T07:00:10.440Z,3.70
2023-05-07T07:02:39.146Z,4.10
2023-05-07T07:05:08.107Z,3.80
2023-05-07T07:07:36.269Z,3.40
2023-05-07T07:10:05.940Z,4.00
2023-05-07T07:12:33.937Z,4.40
2023-05-07T07:15:02.021Z,4.80
2023-05-07T07:17:30.213Z,4.80
2023-05-07T07:19:58.321Z,4.30
2023-05-07T07:22:26.450Z,3.80
2023-05-07T07:24:54.520Z,3.70
2023-05-07T07:27:22.544Z,3.70
2023-05-07T07:29:50.649Z,3.70
2023-05-07T07:32:18.724Z,3.90
2023-05-07T07:34:47.677Z,4.10
2023-05-07T07:37:15.883Z,4.50
2023-05-07T07:39:44.042Z,4.10
2023-05-07T07:42:12.060Z,4.60
2023-05-07T07:44:40.814Z,4.30
2023-05-07T07:47:08.987Z,4.70
2023-05-07T07:49:37.295Z,5.00
2023-05-07T07:52:05.448Z,4.70
2023-05-07T07:54:33.658Z,4.80
2023-05-07T07:57:02.589Z,4.80
2023-05-07T07:59:30.656Z,4.10
2023-05-07T08:01:58.862Z,4.60
2023-05-07T08:04:27.025Z,5.30
2023-05-07T08:06:58.794Z,5.20
2023-05-07T08:09:26.922Z,4.90
2023-05-07T08:11:55.012Z,4.90
2023-05-07T08:14:23.093Z,4.80
2023-05-07T08:16:51.391Z,5.40
2023-05-07T08:19:19.516Z,5.00
2023-05-07T08:21:48.977Z,5.20
2023-05-07T08:24:17.386Z,9.20
2023-05-07T08:26:47.692Z,5.90
2023-05-07T08:29:16.052Z,5.80
2023-05-07T08:31:44.152Z,5.30
2023-05-07T08:34:12.311Z,5.30
2023-05-07T08:36:42.887Z,5.00
2023-05-07T08:39:10.969Z,5.00
2023-05-07T08:41:39.165Z,4.30
2023-05-07T08:44:14.134Z,4.90
2023-05-07T08:46:44.566Z,5.30
2023-05-07T08:49:12.757Z,5.60
2023-05-07T08:51:42.848Z,5.10
2023-05-07T08:54:12.754Z,4.20
2023-05-07T08:56:41.082Z,4.70
2023-05-07T08:59:09.225Z,5.20
2023-05-07T09:01:37.531Z,5.40
2023-05-07T09:04:06.977Z,5.40
2023-05-07T09:06:35.860Z,5.60
2023-05-07T09:09:06.245Z,5.30
2023-05-07T09:11:34.647Z,4.80
2023-05-07T09:14:03.929Z,5.10
2023-05-07T09:16:32.351Z,5.40
2023-05-07T09:19:04.030Z,5.00
2023-05-07T09:21:32.753Z,4.80
2023-05-07T09:24:00.839Z,4.40
2023-05-07T09:26:29.446Z,4.60
2023-05-07T09:28:57.568Z,4.10
2023-05-07T09:31:26.260Z,4.40
2023-05-07T09:33:54.681Z,4.60
2023-05-07T09:36:22.723Z,4.30
2023-05-07T09:38:52.418Z,5.00
2023-05-07T09:41:20.851Z,4.40
2023-05-07T09:43:55.697Z,4.40
2023-05-07T09:46:30.968Z,5.20
2023-05-07T09:49:00.453Z,4.70
2023-05-07T09:51:42.572Z,4.50
2023-05-07T09:54:11.835Z,4.00
2023-05-07T09:56:42.857Z,5.20
2023-05-07T09:59:14.604Z,5.30
2023-05-07T10:01:44.306Z,5.20
2023-05-07T10:04:13.503Z,5.10
2023-05-07T10:06:42.094Z,4.70
2023-05-07T10:09:11.025Z,5.00
2023-05-07T10:11:39.953Z,5.00
2023-05-07T10:14:08.393Z,5.50
2023-05-07T10:16:37.824Z,5.80
2023-05-07T10:19:07.411Z,5.10
2023-05-07T10:21:38.038Z,5.30
2023-05-07T10:26:38.746Z,6.50
2023-05-07T10:29:28.388Z,8.50
2023-05-07T10:32:01.399Z,7.20
2023-05-07T10:34:36.175Z,5.60
2023-05-07T10:37:05.392Z,5.30
2023-05-07T10:39:33.605Z,4.80
2023-05-07T10:42:12.942Z,4.60
2023-05-07T10:44:41.632Z,5.00
2023-05-07T10:47:10.852Z,4.50
2023-05-07T10:49:45.253Z,4.80
2023-05-07T10:52:18.986Z,4.60
2023-05-07T10:54:47.817Z,3.90
2023-05-07T10:57:38.648Z,3.60
2023-05-07T11:03:01.608Z,3.50
2023-05-07T11:05:36.650Z,4.10
2023-05-07T11:08:06.661Z,3.80
2023-05-07T11:10:52.783Z,4.10
2023-05-07T11:13:44.817Z,4.30
2023-05-07T11:16:19.049Z,4.00
2023-05-07T11:18:51.924Z,3.80
2023-05-07T11:21:41.131Z,3.50
2023-05-07T11:24:11.741Z,3.30
2023-05-07T11:26:44.519Z,4.00
2023-05-07T11:29:20.823Z,3.20
2023-05-07T11:31:52.301Z,3.30
2023-05-07T11:34:24.890Z,3.20
2023-05-07T11:36:54.002Z,3.20
2023-05-07T11:39:37.123Z,3.50
2023-05-07T11:42:05.295Z,3.20
2023-05-07T11:44:44.323Z,3.10
2023-05-07T11:47:12.971Z,3.20
2023-05-07T11:49:41.864Z,3.00
2023-05-07T11:52:10.068Z,2.60
2023-05-07T11:54:38.750Z,2.60
2023-05-07T11:57:08.527Z,2.70
2023-05-07T11:59:43.193Z,3.00
2023-05-07T12:02:11.922Z,2.60
2023-05-07T12:04:40.125Z,2.70
2023-05-07T12:07:17.818Z,2.90
2023-05-07T12:09:47.376Z,2.70
2023-05-07T12:12:16.834Z,2.70
2023-05-07T12:14:46.414Z,2.70
2023-05-07T12:17:15.695Z,2.70
2023-05-07T12:19:45.931Z,3.00
2023-05-07T12:22:14.404Z,2.60
2023-05-07T12:24:58.805Z,2.50
2023-05-07T12:27:27.486Z,2.50
2023-05-07T12:29:55.720Z,2.30
2023-05-07T12:32:23.933Z,2.80
2023-05-07T12:34:52.820Z,2.80
2023-05-07T12:37:29.053Z,2.70
2023-05-07T12:40:10.804Z,2.50
2023-05-07T12:42:41.523Z,2.30
2023-05-07T12:45:14.436Z,2.50
2023-05-07T12:47:49.178Z,2.50
2023-05-07T12:50:17.742Z,2.60
2023-05-07T12:52:48.081Z,2.80
2023-05-07T12:55:17.633Z,2.00
2023-05-07T12:57:53.995Z,2.90
2023-05-07T13:00:54.848Z,2.00
2023-05-07T13:03:31.955Z,2.10
2023-05-07T13:06:04.969Z,2.50
2023-05-07T13:08:38.862Z,2.10
2023-05-07T13:11:08.925Z,2.20
2023-05-07T13:13:39.880Z,2.20
2023-05-07T13:16:10.435Z,2.10
2023-05-07T13:18:40.830Z,2.40
2023-05-07T13:21:09.059Z,2.20
2023-05-07T13:23:37.137Z,2.30
2023-05-07T13:26:14.506Z,2.40
2023-05-07T13:28:56.194Z,2.20
2023-05-07T13:31:26.213Z,2.40
2023-05-07T13:33:54.324Z,2.10
2023-05-07T13:36:22.468Z,2.20
2023-05-07T13:38:52.950Z,2.30
2023-05-07T13:41:21.260Z,2.30
2023-05-07T13:56:07.227Z,2.70
2023-05-07T13:58:42.229Z,2.20
2023-05-07T14:01:13.379Z,2.30
2023-05-07T14:03:41.748Z,2.30
2023-05-07T14:06:10.017Z,2.60
2023-05-07T14:08:38.060Z,2.50
2023-05-07T14:11:06.183Z,2.20
2023-05-07T14:13:35.561Z,2.60
2023-05-07T14:16:05.886Z,2.20
2023-05-07T14:18:35.605Z,2.20
2023-05-07T14:21:04.333Z,2.30
2023-05-07T14:23:32.398Z,2.40
2023-05-07T14:26:00.809Z,2.50
2023-05-07T14:28:28.929Z,2.90
2023-05-07T14:30:57.143Z,2.80
2023-05-07T14:33:25.249Z,2.40
2023-05-07T14:35:53.305Z,3.00
2023-05-07T14:38:21.354Z,2.70
2023-05-07T14:40:49.363Z,2.40
2023-05-07T14:43:17.478Z,2.70
2023-05-07T14:45:45.967Z,2.60
2023-05-07T14:48:16.366Z,2.80
2023-05-07T14:53:12.656Z,2.80
2023-05-07T14:55:41.907Z,2.40
2023-05-07T14:58:10.437Z,2.90
2023-05-07T15:00:38.672Z,2.40
2023-05-07T15:03:09.185Z,2.40
2023-05-07T15:05:39.429Z,2.60
2023-05-07T15:08:07.568Z,2.60
2023-05-07T15:10:42.458Z,2.90
2023-05-07T15:13:15.622Z,2.70
2023-05-07T15:15:45.681Z,2.30
2023-05-07T15:18:13.909Z,2.70
2023-05-07T15:20:42.954Z,2.20
2023-05-07T15:23:13.220Z,2.20
2023-05-07T15:25:41.484Z,2.10
2023-05-07T15:28:09.872Z,2.30
2023-05-07T15:30:37.971Z,2.60
2023-05-07T15:33:06.792Z,2.40
2023-05-07T15:35:35.184Z,2.40
2023-05-07T15:38:04.208Z,2.20
2023-05-07T15:40:32.550Z,2.20
2023-05-07T15:43:01.377Z,2.50
2023-05-07T15:45:29.927Z,2.20
2023-05-07T15:47:58.107Z,3.10
2023-05-07T15:50:26.342Z,2.50
2023-05-07T15:52:55.065Z,2.30
2023-05-07T15:55:23.316Z,2.70
2023-05-07T15:57:52.410Z,2.80
2023-05-07T16:00:21.198Z,2.70
2023-05-07T16:02:49.315Z,2.50
2023-05-07T16:05:17.995Z,2.60
2023-05-07T16:07:46.051Z,3.00
2023-05-07T16:10:14.925Z,2.00
2023-05-07T16:12:44.762Z,1.50
2023-05-07T16:15:13.112Z,1.30
2023-05-07T16:17:41.666Z,2.40
2023-05-07T16:20:13.270Z,1.90
2023-05-07T16:22:41.515Z,2.40
2023-05-07T16:25:10.129Z,1.90
2023-05-07T16:27:38.574Z,2.40
2023-05-07T16:30:07.686Z,2.40
2023-05-07T16:32:36.518Z,2.00
2023-05-07T16:35:05.062Z,1.90
2023-05-07T16:37:34.202Z,2.00
2023-05-07T16:40:02.897Z,1.50
2023-05-07T16:42:31.005Z,1.70
2023-05-07T16:44:59.110Z,1.70
2023-05-07T16:47:27.220Z,2.10
2023-05-07T16:49:55.326Z,2.00
2023-05-07T16:52:23.406Z,1.90
2023-05-07T16:54:51.445Z,1.60
2023-05-07T16:57:19.569Z,1.90
2023-05-07T16:59:47.677Z,1.70
2023-05-07T17:02:15.789Z,2.10
2023-05-07T17:04:43.905Z,2.10
2023-05-07T17:07:12.825Z,2.30
2023-05-07T17:09:41.477Z,1.70
2023-05-07T17:12:09.713Z,2.20
2023-05-07T17:14:37.780Z,2.50
2023-05-07T17:17:05.853Z,1.90
2023-05-07T17:19:37.959Z,2.50
2023-05-07T17:22:08.143Z,2.60
2023-05-07T17:24:36.825Z,2.40
2023-05-07T17:27:04.968Z,2.30
2023-05-07T17:29:33.081Z,2.50
2023-05-07T17:32:01.223Z,2.50
2023-05-07T17:34:29.480Z,2.20
2023-05-07T17:36:58.958Z,2.00
2023-05-07T17:39:27.005Z,2.40
2023-05-07T17:41:55.895Z,2.30
2023-05-07T17:44:24.024Z,2.50
2023-05-07T17:46:52.158Z,2.30
2023-05-07T17:49:20.251Z,2.30
2023-05-07T17:51:54.650Z,2.40
2023-05-07T17:54:27.183Z,2.20
2023-05-07T17:56:55.593Z,2.40
2023-05-07T17:59:23.768Z,2.50
2023-05-07T18:01:52.025Z,2.00
2023-05-07T18:04:21.961Z,2.60
2023-05-07T18:06:50.076Z,2.30
2023-05-07T18:09:18.216Z,2.20
2023-05-07T18:11:46.350Z,1.90
2023-05-07T18:14:14.515Z,2.30
2023-05-07T18:16:42.655Z,2.20
2023-05-07T18:19:11.893Z,2.00
2023-05-07T18:21:40.148Z,2.30
2023-05-07T18:24:08.686Z,2.10
2023-05-07T18:26:36.940Z,2.00
2023-05-07T18:29:05.057Z,2.00
2023-05-07T18:31:34.763Z,2.00
2023-05-07T18:34:07.998Z,1.90
2023-05-07T18:36:36.513Z,2.00
2023-05-07T18:39:04.644Z,2.10
2023-05-07T18:41:32.961Z,2.30
2023-05-07T18:44:01.051Z,1.70
2023-05-07T18:46:29.784Z,1.80
2023-05-07T18:48:58.029Z,1.90
2023-05-07T18:51:27.398Z,1.90
2023-05-07T18:53:55.708Z,1.90
2023-05-07T18:56:24.049Z,2.20
2023-05-07T18:58:54.299Z,2.20
2023-05-07T19:01:22.504Z,2.30
2023-05-07T19:03:50.704Z,1.90
2023-05-07T19:06:18.958Z,2.30
2023-05-07T19:08:47.341Z,2.30
2023-05-07T19:11:15.690Z,2.20
2023-05-07T19:13:43.922Z,2.60
2023-05-07T19:16:13.621Z,2.10
2023-05-07T19:18:42.210Z,2.00
2023-05-07T19:21:10.769Z,1.80
2023-05-07T19:23:41.975Z,1.70
2023-05-07T19:26:10.904Z,2.00
2023-05-07T19:28:45.034Z,1.80
2023-05-07T19:31:21.822Z,1.90
2023-05-07T19:33:50.044Z,2.10
2023-05-07T19:36:18.168Z,1.80
2023-05-07T19:38:47.185Z,2.00
2023-05-07T19:41:15.299Z,2.10
2023-05-07T19:43:43.490Z,2.10
2023-05-07T19:46:11.805Z,2.20
2023-05-07T19:48:39.976Z,2.60
2023-05-07T19:51:08.188Z,2.00
2023-05-07T19:53:36.459Z,2.10
2023-05-07T19:56:06.652Z,2.40
2023-05-07T19:58:35.498Z,2.20
2023-05-07T20:01:04.767Z,2.30
2023-05-07T20:03:33.594Z,2.70
2023-05-07T20:06:02.847Z,2.80
2023-05-07T20:08:31.271Z,2.70
2023-05-07T20:11:00.058Z,2.70
2023-05-07T20:13:28.360Z,2.10
2023-05-07T20:16:00.882Z,2.30
2023-05-07T20:18:29.842Z,2.80
2023-05-07T20:20:58.008Z,2.60
2023-05-07T20:23:27.244Z,2.50
2023-05-07T20:25:55.591Z,2.70
2023-05-07T20:28:24.155Z,3.10
2023-05-07T20:30:52.453Z,3.20
2023-05-07T20:33:20.578Z,2.70
2023-05-07T20:35:49.159Z,3.10
2023-05-07T20:38:17.319Z,3.30
2023-05-07T20:40:45.521Z,3.40
2023-05-07T20:43:13.647Z,3.00
2023-05-07T20:45:41.803Z,2.60
2023-05-07T20:48:10.054Z,2.80
2023-05-07T20:50:38.122Z,3.60
2023-05-07T20:53:06.202Z,3.20
2023-05-07T20:55:34.237Z,2.90
2023-05-07T20:58:02.420Z,2.70
2023-05-07T21:00:30.496Z,2.80
2023-05-07T21:02:58.635Z,2.90
2023-05-07T21:05:26.734Z,2.70
2023-05-07T21:07:54.762Z,2.40
2023-05-07T21:10:22.828Z,2.10
2023-05-07T21:12:50.988Z,2.20
2023-05-07T21:15:19.164Z,2.70
2023-05-07T21:17:47.263Z,2.70
2023-05-07T21:20:15.873Z,2.60
2023-05-07T21:22:44.217Z,2.00
2023-05-07T21:25:13.415Z,2.10
2023-05-07T21:27:41.718Z,2.80
2023-05-07T21:30:10.685Z,1.70
2023-05-07T21:32:39.356Z,2.10
2023-05-07T21:35:08.088Z,2.00
2023-05-07T21:37:36.432Z,1.80
2023-05-07T21:40:05.848Z,1.70
2023-05-07T21:42:34.161Z,2.00
2023-05-07T21:45:05.594Z,1.90
2023-05-07T21:47:33.677Z,1.80
2023-05-07T21:50:01.749Z,1.90
2023-05-07T21:52:30.024Z,1.80
2023-05-07T21:54:58.087Z,2.00
2023-05-07T21:57:26.383Z,1.70
2023-05-07T21:59:54.435Z,1.80
2023-05-07T22:02:22.746Z,2.20
2023-05-07T22:04:50.865Z,1.80
2023-05-07T22:07:18.966Z,1.60
2023-05-07T22:09:47.046Z,1.60
2023-05-07T22:12:15.213Z,1.80
2023-05-07T22:14:43.353Z,1.60
2023-05-07T22:17:11.404Z,1.70
2023-05-07T22:19:39.598Z,1.80
2023-05-07T22:22:07.941Z,2.00
2023-05-07T22:24:36.110Z,1.90
2023-05-07T22:27:04.219Z,1.90
2023-05-07T22:29:32.323Z,1.60
2023-05-07T22:32:00.383Z,1.90
2023-05-07T22:34:28.546Z,1.80
2023-05-07T22:36:56.576Z,2.20
2023-05-07T22:39:24.736Z,1.60
2023-05-07T22:41:52.870Z,1.70
2023-05-07T22:44:21.062Z,1.50
2023-05-07T22:46:49.959Z,1.80
2023-05-07T22:49:18.101Z,2.00
2023-05-07T22:51:46.246Z,1.80
2023-05-07T22:54:14.288Z,1.90
2023-05-07T22:56:42.349Z,1.90
2023-05-07T22:59:10.605Z,1.80
2023-05-07T23:01:38.681Z,1.80
2023-05-07T23:04:07.131Z,1.70
2023-05-07T23:06:35.209Z,2.10
2023-05-07T23:09:04.018Z,2.30
2023-05-07T23:11:32.131Z,1.90
2023-05-07T23:14:00.934Z,1.90
2023-05-07T23:16:29.549Z,2.00
2023-05-07T23:18:58.090Z,2.30
2023-05-07T23:21:26.181Z,2.60
2023-05-07T23:23:54.253Z,2.60
2023-05-07T23:26:23.631Z,2.50
2023-05-07T23:28:51.666Z,2.70
2023-05-07T23:31:19.759Z,2.50
2023-05-07T23:33:47.835Z,3.00
2023-05-07T23:36:16.076Z,2.70
2023-05-07T23:38:44.222Z,2.90
2023-05-07T23:41:12.877Z,3.00
2023-05-07T23:43:41.069Z,3.10
2023-05-07T23:46:09.372Z,2.80
2023-05-07T23:48:37.465Z,3.10
2023-05-07T23:51:05.684Z,3.30
2023-05-07T23:53:33.990Z,3.20
2023-05-07T23:56:02.147Z,3.50
2023-05-07T23:58:30.289Z,3.30
